createdAt,value
2022-10-23T17:18:37.657Z,21.92
2022-10-23T17:21:07.927Z,24.40
2022-10-23T17:23:35.320Z,44.53
2022-10-23T17:26:04.436Z,28.08
2022-10-23T17:28:31.969Z,30.20
2022-10-23T17:30:58.778Z,30.98
2022-10-23T17:33:25.378Z,33.22
2022-10-23T17:35:52.460Z,47.25
2022-10-23T17:38:19.273Z,34.35
2022-10-23T17:40:47.381Z,34.72
2022-10-23T17:43:15.656Z,38.90
2022-10-23T17:45:45.229Z,38.00
2022-10-23T17:48:13.303Z,37.08
2022-10-23T17:50:43.501Z,33.75
2022-10-23T17:53:10.233Z,34.28
2022-10-23T17:55:40.586Z,34.78
2022-10-23T17:58:08.120Z,38.25
2022-10-23T18:00:40.425Z,40.63
2022-10-23T18:03:09.723Z,33.28
2022-10-23T18:05:36.624Z,29.10
2022-10-23T18:10:44.512Z,23.92
2022-10-23T18:13:11.209Z,22.40
2022-10-23T18:15:39.506Z,23.67
2022-10-23T18:18:14.107Z,22.33
2022-10-23T18:20:41.432Z,26.25
2022-10-23T18:23:09.041Z,22.15
2022-10-23T18:25:35.743Z,19.50
2022-10-23T18:28:02.712Z,20.35
2022-10-23T18:30:29.647Z,23.05
2022-10-23T18:32:58.373Z,23.38
2022-10-23T18:35:25.516Z,22.75
2022-10-23T18:37:52.330Z,22.73
2022-10-23T18:40:19.945Z,23.25
2022-10-23T18:42:48.322Z,21.23
2022-10-23T18:45:15.324Z,22.35
2022-10-23T18:47:45.360Z,21.15
2022-10-23T18:50:12.341Z,22.27
2022-10-23T18:52:39.008Z,23.77
2022-10-23T18:55:09.055Z,23.48
2022-10-23T18:57:36.756Z,25.48
2022-10-23T19:00:07.116Z,24.42
2022-10-23T19:02:33.942Z,25.77
2022-10-23T19:05:00.703Z,26.30
2022-10-23T19:07:27.381Z,24.00
2022-10-23T19:09:55.110Z,24.58
2022-10-23T19:12:22.869Z,23.85
2022-10-23T19:14:49.539Z,23.92
2022-10-23T19:17:23.961Z,20.98
2022-10-23T19:19:54.105Z,24.35
2022-10-23T19:22:23.115Z,22.60
2022-10-23T19:24:56.382Z,21.85
2022-10-23T19:27:23.555Z,22.23
2022-10-23T19:29:51.907Z,22.30
2022-10-23T19:32:18.757Z,21.65
2022-10-23T19:34:46.722Z,21.05
2022-10-23T19:39:45.599Z,22.45
2022-10-23T19:42:12.344Z,21.83
2022-10-23T19:44:38.913Z,23.67
2022-10-23T19:47:05.595Z,23.48
2022-10-23T19:49:32.277Z,23.02
2022-10-23T19:51:58.978Z,25.02
2022-10-23T19:54:25.694Z,25.40
2022-10-23T19:56:53.478Z,25.25
2022-10-23T19:59:20.149Z,25.92
2022-10-23T20:01:48.877Z,26.58
2022-10-23T20:04:18.251Z,24.63
2022-10-23T20:06:44.975Z,23.00
2022-10-23T20:09:11.622Z,23.98
2022-10-23T20:11:39.629Z,25.52
2022-10-23T20:14:06.998Z,25.05
2022-10-23T20:16:38.793Z,24.52
2022-10-23T20:19:09.096Z,24.80
2022-10-23T20:21:38.026Z,24.33
2022-10-23T20:24:04.898Z,26.58
2022-10-23T20:26:31.540Z,27.73
2022-10-23T20:28:58.406Z,27.15
2022-10-23T20:31:26.979Z,29.30
2022-10-23T20:33:54.711Z,24.67
2022-10-23T20:36:30.463Z,24.33
2022-10-23T20:38:59.043Z,23.10
2022-10-23T20:41:28.501Z,23.65
2022-10-23T20:43:56.334Z,24.02
2022-10-23T20:46:23.251Z,22.13
2022-10-23T20:48:50.154Z,24.75
2022-10-23T20:51:19.721Z,22.20
2022-10-23T20:53:47.789Z,22.55
2022-10-23T20:56:17.475Z,21.27
2022-10-23T20:58:44.550Z,23.67
2022-10-23T21:01:14.397Z,23.73
2022-10-23T21:03:41.092Z,23.20
2022-10-23T21:06:13.743Z,22.92
2022-10-23T21:08:41.272Z,26.25
2022-10-23T21:11:11.188Z,24.30
2022-10-23T21:13:37.977Z,23.65
2022-10-23T21:16:27.665Z,24.98
2022-10-23T21:18:57.361Z,24.15
2022-10-23T21:21:24.846Z,23.42
2022-10-23T21:23:53.578Z,23.13
2022-10-23T21:26:22.640Z,19.45
2022-10-23T21:28:56.045Z,19.27
2022-10-23T21:31:33.755Z,18.58
2022-10-23T21:34:00.495Z,17.00
2022-10-23T21:36:29.158Z,17.38
2022-10-23T21:38:58.802Z,15.77
2022-10-23T21:41:34.391Z,14.27
2022-10-23T21:44:03.870Z,14.95
2022-10-23T21:46:32.582Z,14.75
2022-10-23T21:49:00.657Z,14.02
2022-10-23T21:51:37.198Z,13.95
2022-10-23T21:54:06.009Z,13.82
2022-10-23T21:56:40.600Z,14.32
2022-10-23T21:59:12.733Z,14.93
2022-10-23T22:01:40.979Z,15.95
2022-10-23T22:04:12.602Z,16.60
2022-10-23T22:06:39.369Z,15.98
2022-10-23T22:09:07.059Z,15.35
2022-10-23T22:11:34.639Z,14.52
2022-10-23T22:14:04.056Z,15.32
2022-10-23T22:16:30.885Z,16.20
2022-10-23T22:18:58.085Z,15.35
2022-10-23T22:21:27.449Z,14.65
2022-10-23T22:23:56.264Z,14.40
2022-10-23T22:26:29.693Z,14.60
2022-10-23T22:28:59.428Z,14.13
2022-10-23T22:31:29.049Z,13.63
2022-10-23T22:33:56.585Z,13.63
2022-10-23T22:36:23.934Z,14.05
2022-10-23T22:38:50.616Z,13.20
2022-10-23T22:41:18.411Z,13.57
2022-10-23T22:43:45.195Z,14.00
2022-10-23T22:46:18.647Z,12.90
2022-10-23T22:48:45.864Z,13.20
2022-10-23T22:51:18.860Z,11.05
2022-10-23T22:53:46.902Z,11.57
2022-10-23T22:56:19.788Z,11.15
2022-10-23T22:58:47.049Z,11.75
2022-10-23T23:01:18.578Z,11.20
2022-10-23T23:03:45.474Z,10.50
2022-10-23T23:06:12.765Z,10.25
2022-10-23T23:08:40.533Z,10.73
2022-10-23T23:11:09.569Z,12.10
2022-10-23T23:13:36.275Z,10.25
2022-10-23T23:16:03.884Z,10.35
2022-10-23T23:18:31.446Z,11.63
2022-10-23T23:21:06.256Z,10.63
2022-10-23T23:23:36.612Z,12.60
2022-10-23T23:26:06.197Z,13.18
2022-10-23T23:28:35.067Z,12.93
2022-10-23T23:31:28.197Z,11.43
2022-10-23T23:33:55.137Z,10.43
2022-10-23T23:36:27.158Z,11.02
2022-10-23T23:38:55.924Z,11.65
2022-10-23T23:41:24.233Z,11.70
2022-10-23T23:43:51.008Z,11.43
2022-10-23T23:46:18.313Z,11.25
2022-10-23T23:48:48.477Z,11.80
2022-10-23T23:51:20.728Z,11.35
2022-10-23T23:53:51.444Z,10.68
2022-10-23T23:56:20.988Z,11.35
2022-10-23T23:58:47.657Z,11.70
